createdAt,value
2022-09-09T00:00:18.450Z,18.60
2022-09-09T00:04:32.345Z,18.50
2022-09-09T00:08:47.533Z,18.80
2022-09-09T00:13:18.677Z,18.80
2022-09-09T00:17:45.338Z,18.60
2022-09-09T00:22:02.755Z,18.80
2022-09-09T00:26:10.793Z,18.60
2022-09-09T00:30:24.372Z,18.80
2022-09-09T00:34:28.380Z,18.50
2022-09-09T00:38:39.339Z,18.50
2022-09-09T00:42:44.951Z,18.60
2022-09-09T00:46:58.546Z,18.70
2022-09-09T00:51:18.867Z,18.80
2022-09-09T00:55:26.468Z,18.80
2022-09-09T00:59:43.844Z,18.30
2022-09-09T01:03:51.880Z,18.40
2022-09-09T01:07:58.239Z,18.30
2022-09-09T01:12:04.247Z,18.30
2022-09-09T01:16:08.756Z,18.50
2022-09-09T01:20:20.290Z,18.50
2022-09-09T01:24:40.207Z,18.70
2022-09-09T01:28:50.067Z,18.60
2022-09-09T01:32:58.784Z,18.70
2022-09-09T01:37:08.532Z,18.80
2022-09-09T01:41:09.830Z,18.80
2022-09-09T01:45:11.016Z,18.70
2022-09-09T01:49:12.925Z,18.70
2022-09-09T01:53:17.255Z,18.70
2022-09-09T01:57:28.224Z,18.80
2022-09-09T02:01:48.195Z,18.70
2022-09-09T02:06:17.751Z,18.70
2022-09-09T02:10:28.461Z,18.50
2022-09-09T02:14:33.475Z,18.50
2022-09-09T02:18:47.144Z,18.60
2022-09-09T02:22:52.568Z,18.70
2022-09-09T02:26:56.358Z,18.70
2022-09-09T02:30:58.820Z,18.60
2022-09-09T02:35:09.689Z,18.40
2022-09-09T02:39:11.210Z,18.50
2022-09-09T02:43:16.721Z,18.40
2022-09-09T02:47:28.980Z,18.30
2022-09-09T02:51:40.108Z,18.20
2022-09-09T02:55:51.088Z,18.20
2022-09-09T02:59:53.076Z,18.30
2022-09-09T03:03:55.404Z,18.20
2022-09-09T03:07:56.799Z,18.10
2022-09-09T03:11:58.010Z,18.50
2022-09-09T03:16:00.258Z,18.60
2022-09-09T03:20:04.042Z,18.50
2022-09-09T03:24:06.894Z,18.40
2022-09-09T03:28:08.086Z,18.40
2022-09-09T03:32:11.104Z,18.60
2022-09-09T03:36:12.303Z,18.60
2022-09-09T03:40:13.804Z,18.40
2022-09-09T03:44:15.460Z,18.30
2022-09-09T03:48:17.791Z,18.40
2022-09-09T03:52:23.695Z,18.20
2022-09-09T03:56:24.349Z,18.20
2022-09-09T04:00:26.923Z,18.00
2022-09-09T04:04:28.132Z,17.90
2022-09-09T04:08:31.521Z,17.90
2022-09-09T04:12:32.715Z,17.90
2022-09-09T04:16:35.669Z,18.00
2022-09-09T04:20:36.786Z,18.00
2022-09-09T04:24:37.983Z,18.10
2022-09-09T04:28:39.157Z,18.10
2022-09-09T04:32:40.447Z,18.00
2022-09-09T04:36:41.541Z,17.90
2022-09-09T04:40:44.131Z,17.80
2022-09-09T04:44:45.518Z,17.90
2022-09-09T04:48:46.686Z,18.00
2022-09-09T04:52:47.995Z,17.90
2022-09-09T04:56:51.068Z,17.70
2022-09-09T05:00:52.225Z,17.80
2022-09-09T05:04:53.361Z,17.90
2022-09-09T05:08:54.510Z,17.90
2022-09-09T05:12:56.463Z,17.90
2022-09-09T05:16:58.369Z,17.70
2022-09-09T05:21:00.662Z,17.70
2022-09-09T05:25:01.876Z,17.70
2022-09-09T05:29:03.061Z,18.00
2022-09-09T05:33:04.247Z,18.00
2022-09-09T05:37:05.344Z,17.80
2022-09-09T05:41:07.795Z,17.80
2022-09-09T05:45:09.610Z,17.90
2022-09-09T05:49:10.779Z,17.80
2022-09-09T05:53:12.050Z,17.70
2022-09-09T05:57:13.863Z,17.70
2022-09-09T06:01:24.840Z,17.60
2022-09-09T06:05:28.457Z,17.70
2022-09-09T06:09:30.850Z,17.60
2022-09-09T06:13:32.884Z,17.60
2022-09-09T06:17:34.045Z,17.80
2022-09-09T06:21:37.357Z,17.70
2022-09-09T06:25:40.506Z,17.90
2022-09-09T06:29:41.784Z,18.30
2022-09-09T06:33:44.832Z,18.60
2022-09-09T06:37:47.921Z,18.40
2022-09-09T06:41:50.014Z,18.60
2022-09-09T06:45:57.006Z,18.70
2022-09-09T06:49:58.689Z,18.90
2022-09-09T06:54:02.589Z,18.80
2022-09-09T06:58:07.579Z,18.90
2022-09-09T07:02:08.829Z,18.70
2022-09-09T07:06:15.075Z,19.00
2022-09-09T07:10:16.459Z,19.10
2022-09-09T07:14:17.564Z,19.30
2022-09-09T07:18:19.997Z,19.40
2022-09-09T07:22:21.205Z,19.30
2022-09-09T07:26:25.486Z,18.90
2022-09-09T07:30:27.930Z,18.90
2022-09-09T07:34:30.258Z,19.10
2022-09-09T07:38:31.344Z,19.10
2022-09-09T07:42:32.542Z,19.00
2022-09-09T07:46:34.583Z,18.80
2022-09-09T07:50:35.708Z,18.90
2022-09-09T07:54:36.912Z,18.90
2022-09-09T07:58:40.153Z,18.80
2022-09-09T08:02:41.559Z,19.30
2022-09-09T08:06:53.259Z,19.20
2022-09-09T08:10:57.590Z,19.30
2022-09-09T08:14:58.747Z,19.60
2022-09-09T08:19:00.042Z,19.80
2022-09-09T08:23:01.224Z,20.00
2022-09-09T08:27:02.446Z,20.00
2022-09-09T08:31:09.700Z,19.90
2022-09-09T08:35:10.906Z,19.90
2022-09-09T08:39:14.607Z,20.00
2022-09-09T08:43:18.833Z,19.80
2022-09-09T08:47:51.038Z,20.20
2022-09-09T08:51:55.647Z,20.20
2022-09-09T08:55:59.638Z,20.00
2022-09-09T09:00:01.103Z,20.20
2022-09-09T09:04:30.715Z,20.30
2022-09-09T09:08:38.471Z,20.60
2022-09-09T09:12:43.344Z,20.40
2022-09-09T09:16:48.656Z,20.60
2022-09-09T09:21:14.906Z,20.20
2022-09-09T09:25:22.570Z,19.90
2022-09-09T09:29:26.384Z,19.80
2022-09-09T09:33:31.288Z,19.40
2022-09-09T09:37:35.931Z,19.60
2022-09-09T09:41:41.080Z,19.40
2022-09-09T09:46:06.968Z,19.30
2022-09-09T09:49:59.705Z,19.40
2022-09-09T09:54:16.837Z,20.40
2022-09-09T09:58:18.771Z,20.40
2022-09-09T10:02:24.716Z,20.70
2022-09-09T10:06:38.611Z,20.70
2022-09-09T10:10:52.861Z,20.80
2022-09-09T10:15:16.414Z,21.10
2022-09-09T10:19:21.401Z,21.00
2022-09-09T10:23:41.859Z,20.60
2022-09-09T10:28:02.692Z,20.50
2022-09-09T10:32:30.172Z,20.90
2022-09-09T10:36:31.416Z,22.30
2022-09-09T10:40:38.911Z,23.10
2022-09-09T10:44:52.964Z,23.30
2022-09-09T10:49:10.960Z,23.20
2022-09-09T10:53:22.094Z,23.70
2022-09-09T10:57:36.711Z,22.90
2022-09-09T11:01:42.290Z,22.20
2022-09-09T11:05:46.844Z,21.50
2022-09-09T11:09:51.857Z,22.40
2022-09-09T11:13:59.859Z,21.90
2022-09-09T11:18:04.544Z,21.30
2022-09-09T11:22:09.805Z,22.10
2022-09-09T11:26:14.766Z,22.80
2022-09-09T11:30:53.717Z,22.90
2022-09-09T11:34:38.434Z,22.90
2022-09-09T11:38:51.951Z,23.00
2022-09-09T11:43:06.250Z,23.10
2022-09-09T11:47:27.564Z,22.50
2022-09-09T11:51:30.683Z,22.60
2022-09-09T11:55:36.750Z,22.80
2022-09-09T11:59:37.903Z,22.40
2022-09-09T12:03:53.050Z,22.20
2022-09-09T12:07:57.628Z,22.20
2022-09-09T12:12:14.093Z,21.80
2022-09-09T12:16:31.396Z,22.70
2022-09-09T12:20:40.483Z,23.20
2022-09-09T12:24:45.490Z,23.10
2022-09-09T12:29:13.037Z,22.60
2022-09-09T12:33:17.531Z,22.50
2022-09-09T12:37:31.334Z,23.20
2022-09-09T12:41:32.503Z,23.30
2022-09-09T12:45:35.953Z,23.20
2022-09-09T12:49:41.333Z,22.80
2022-09-09T12:53:42.716Z,22.70
2022-09-09T12:57:44.630Z,21.90
2022-09-09T13:01:49.724Z,21.40
2022-09-09T13:05:51.895Z,21.30
2022-09-09T13:09:52.984Z,21.30
2022-09-09T13:13:56.060Z,21.40
2022-09-09T13:18:04.269Z,22.00
2022-09-09T13:22:15.143Z,22.30
2022-09-09T13:26:26.025Z,22.00
2022-09-09T13:30:31.731Z,21.70
2022-09-09T13:34:35.848Z,21.90
2022-09-09T13:38:55.460Z,21.90
2022-09-09T13:42:58.359Z,22.20
2022-09-09T13:47:19.589Z,22.50
2022-09-09T13:51:27.162Z,22.60
2022-09-09T13:55:29.924Z,22.50
2022-09-09T13:59:54.299Z,22.60
2022-09-09T14:03:35.158Z,23.30
2022-09-09T14:07:36.490Z,23.50
2022-09-09T14:11:38.391Z,22.80
2022-09-09T14:15:39.724Z,22.30
2022-09-09T14:19:40.979Z,22.20
2022-09-09T14:23:42.381Z,21.80
2022-09-09T14:27:43.658Z,21.90
2022-09-09T14:31:44.942Z,21.60
2022-09-09T14:35:46.268Z,21.40
2022-09-09T14:39:47.920Z,21.50
2022-09-09T14:43:49.674Z,21.80
2022-09-09T14:47:51.702Z,21.50
2022-09-09T14:51:52.863Z,21.40
2022-09-09T14:55:57.901Z,21.60
2022-09-09T14:59:59.364Z,21.40
2022-09-09T15:04:03.468Z,21.30
2022-09-09T15:08:04.771Z,21.50
2022-09-09T15:12:06.233Z,21.50
2022-09-09T15:16:10.860Z,21.50
2022-09-09T15:20:12.338Z,21.50
2022-09-09T15:24:14.010Z,21.60
2022-09-09T15:28:15.204Z,21.60
2022-09-09T15:32:16.435Z,21.90
2022-09-09T15:36:23.916Z,22.40
2022-09-09T15:40:25.104Z,22.00
2022-09-09T15:44:26.349Z,22.00
2022-09-09T15:48:34.621Z,22.50
2022-09-09T15:52:35.873Z,22.30
2022-09-09T15:56:37.056Z,22.30
2022-09-09T16:00:38.888Z,21.90
2022-09-09T16:04:40.237Z,21.60
2022-09-09T16:08:43.910Z,21.80
2022-09-09T16:12:45.204Z,21.80
2022-09-09T16:16:46.431Z,21.60
2022-09-09T16:20:55.348Z,21.00
2022-09-09T16:24:56.728Z,21.50
2022-09-09T16:28:59.162Z,21.40
2022-09-09T16:33:00.355Z,21.10
2022-09-09T16:37:02.349Z,21.00
2022-09-09T16:41:08.317Z,20.60
2022-09-09T16:45:09.840Z,20.60
2022-09-09T16:49:13.406Z,20.30
2022-09-09T16:53:15.389Z,20.40
2022-09-09T16:57:16.567Z,20.40
2022-09-09T17:01:17.984Z,20.50
2022-09-09T17:05:19.121Z,20.80
2022-09-09T17:09:22.818Z,20.30
2022-09-09T17:13:25.447Z,20.50
2022-09-09T17:17:32.022Z,20.30
2022-09-09T17:21:31.731Z,19.90
2022-09-09T17:25:35.258Z,20.30
2022-09-09T17:29:36.301Z,20.10
2022-09-09T17:33:39.471Z,20.30
2022-09-09T17:37:40.759Z,20.00
2022-09-09T17:41:42.081Z,19.70
2022-09-09T17:45:43.746Z,19.50
2022-09-09T17:49:44.840Z,19.50
2022-09-09T17:53:49.013Z,19.40
2022-09-09T17:57:50.182Z,19.40
2022-09-09T18:01:52.224Z,19.30
2022-09-09T18:05:57.217Z,19.00
2022-09-09T18:09:58.445Z,18.70
2022-09-09T18:14:02.058Z,19.00
2022-09-09T18:18:05.498Z,19.40
2022-09-09T18:22:06.772Z,19.60
2022-09-09T18:26:14.168Z,19.50
2022-09-09T18:30:15.434Z,19.90
2022-09-09T18:34:18.595Z,19.90
2022-09-09T18:38:19.916Z,19.70
2022-09-09T18:42:21.103Z,19.70
2022-09-09T18:46:24.343Z,19.90
2022-09-09T18:50:25.659Z,19.70
2022-09-09T18:54:29.483Z,19.10
2022-09-09T18:58:31.983Z,18.90
2022-09-09T19:02:33.264Z,18.50
2022-09-09T19:06:38.131Z,18.10
2022-09-09T19:10:39.278Z,18.00
2022-09-09T19:14:40.461Z,17.80
2022-09-09T19:18:43.558Z,17.70
2022-09-09T19:22:46.542Z,17.70
2022-09-09T19:26:52.901Z,17.70
2022-09-09T19:30:55.723Z,17.40
2022-09-09T19:34:56.864Z,17.60
2022-09-09T19:38:58.549Z,17.50
2022-09-09T19:42:59.717Z,17.50
2022-09-09T19:47:01.009Z,17.40
2022-09-09T19:51:08.629Z,16.90
2022-09-09T19:55:10.764Z,17.00
2022-09-09T19:59:14.153Z,16.70
2022-09-09T20:03:19.438Z,16.80
2022-09-09T20:07:18.860Z,16.80
2022-09-09T20:11:20.352Z,16.80
2022-09-09T20:15:21.536Z,16.80
2022-09-09T20:19:22.728Z,16.80
2022-09-09T20:23:24.016Z,16.60
2022-09-09T20:27:25.279Z,16.60
2022-09-09T20:31:29.105Z,16.70
2022-09-09T20:35:30.662Z,16.90
2022-09-09T20:39:31.882Z,16.90
2022-09-09T20:43:33.079Z,16.80
2022-09-09T20:47:34.214Z,16.50
2022-09-09T20:51:36.326Z,16.50
2022-09-09T20:55:37.504Z,16.30
2022-09-09T20:59:39.029Z,16.30
2022-09-09T21:03:40.181Z,16.30
2022-09-09T21:07:41.273Z,16.40
2022-09-09T21:11:42.857Z,16.50
2022-09-09T21:15:45.271Z,16.30
2022-09-09T21:19:46.436Z,16.30
2022-09-09T21:23:48.428Z,16.30
2022-09-09T21:27:49.599Z,16.50
2022-09-09T21:31:50.696Z,16.60
2022-09-09T21:35:51.790Z,16.50
2022-09-09T21:39:52.903Z,16.50
2022-09-09T21:43:54.570Z,16.40
2022-09-09T21:47:55.734Z,16.20
2022-09-09T21:51:57.647Z,16.10
2022-09-09T21:56:05.417Z,16.10
2022-09-09T22:00:17.523Z,16.30
2022-09-09T22:04:18.614Z,16.30
2022-09-09T22:08:19.831Z,16.50
2022-09-09T22:12:21.445Z,16.80
2022-09-09T22:16:23.307Z,16.50
2022-09-09T22:20:24.462Z,16.40
2022-09-09T22:24:26.946Z,16.30
2022-09-09T22:28:29.356Z,16.40
2022-09-09T22:32:30.534Z,16.60
2022-09-09T22:36:32.045Z,16.80
2022-09-09T22:40:35.831Z,16.70
2022-09-09T22:44:37.009Z,16.90
2022-09-09T22:48:39.321Z,16.60
2022-09-09T22:52:40.839Z,16.50
2022-09-09T22:56:42.080Z,16.80
2022-09-09T23:00:43.281Z,16.90
2022-09-09T23:04:45.288Z,16.90
2022-09-09T23:08:49.096Z,16.90
2022-09-09T23:12:50.277Z,16.70
2022-09-09T23:16:52.344Z,16.70
2022-09-09T23:20:59.071Z,16.60
2022-09-09T23:25:01.193Z,16.70
2022-09-09T23:29:02.409Z,16.90
2022-09-09T23:33:03.615Z,16.90
2022-09-09T23:37:05.498Z,17.00
2022-09-09T23:41:09.478Z,17.00
2022-09-09T23:45:10.677Z,17.00
2022-09-09T23:49:11.866Z,17.00
2022-09-09T23:53:14.685Z,16.90
2022-09-09T23:57:15.975Z,16.80
